sensor_id;sensor_type;location;lat;lon;timestamp;temperature;humidity
18163;DHT22;9206;50.994;4.538;2024-02-21T00:00:04;9.30;99.90
18163;DHT22;9206;50.994;4.538;2024-02-21T00:02:56;9.30;99.90
18163;DHT22;9206;50.994;4.538;2024-02-21T00:05:50;9.20;99.90
18163;DHT22;9206;50.994;4.538;2024-02-21T00:08:38;9.30;99.90
18163;DHT22;9206;50.994;4.538;2024-02-21T00:11:26;9.30;99.90
18163;DHT22;9206;50.994;4.538;2024-02-21T00:14:16;9.30;99.90
18163;DHT22;9206;50.994;4.538;2024-02-21T00:17:06;9.30;99.90
18163;DHT22;9206;50.994;4.538;2024-02-21T00:19:56;9.30;99.90
18163;DHT22;9206;50.994;4.538;2024-02-21T00:22:46;9.30;99.90
18163;DHT22;9206;50.994;4.538;2024-02-21T00:25:37;9.30;99.90
18163;DHT22;9206;50.994;4.538;2024-02-21T00:28:24;9.40;99.90
18163;DHT22;9206;50.994;4.538;2024-02-21T00:31:13;9.40;99.90
18163;DHT22;9206;50.994;4.538;2024-02-21T00:34:01;9.40;99.90
18163;DHT22;9206;50.994;4.538;2024-02-21T00:36:49;9.30;99.90
18163;DHT22;9206;50.994;4.538;2024-02-21T00:39:39;9.30;99.90
18163;DHT22;9206;50.994;4.538;2024-02-21T00:42:28;9.40;99.90
18163;DHT22;9206;50.994;4.538;2024-02-21T00:45:15;9.30;99.90
18163;DHT22;9206;50.994;4.538;2024-02-21T00:48:02;9.40;99.90
18163;DHT22;9206;50.994;4.538;2024-02-21T00:50:52;9.40;99.90
18163;DHT22;9206;50.994;4.538;2024-02-21T00:53:44;9.40;99.90
18163;DHT22;9206;50.994;4.538;2024-02-21T00:56:31;9.40;99.90
18163;DHT22;9206;50.994;4.538;2024-02-21T00:59:19;9.40;99.90
18163;DHT22;9206;50.994;4.538;2024-02-21T01:02:06;9.30;99.90
18163;DHT22;9206;50.994;4.538;2024-02-21T01:04:54;9.40;99.90
18163;DHT22;9206;50.994;4.538;2024-02-21T01:07:41;9.40;99.90
18163;DHT22;9206;50.994;4.538;2024-02-21T01:10:29;9.30;99.90
18163;DHT22;9206;50.994;4.538;2024-02-21T01:13:17;9.40;99.90
18163;DHT22;9206;50.994;4.538;2024-02-21T01:16:05;9.30;99.90
18163;DHT22;9206;50.994;4.538;2024-02-21T01:18:54;9.20;99.90
18163;DHT22;9206;50.994;4.538;2024-02-21T01:21:43;9.30;99.90
18163;DHT22;9206;50.994;4.538;2024-02-21T01:24:32;9.30;99.90
18163;DHT22;9206;50.994;4.538;2024-02-21T01:27:23;9.30;99.90
18163;DHT22;9206;50.994;4.538;2024-02-21T01:30:24;9.30;99.90
18163;DHT22;9206;50.994;4.538;2024-02-21T01:33:14;9.30;99.90
18163;DHT22;9206;50.994;4.538;2024-02-21T01:36:04;9.30;99.90
18163;DHT22;9206;50.994;4.538;2024-02-21T01:38:55;9.30;99.90
18163;DHT22;9206;50.994;4.538;2024-02-21T01:41:45;9.30;99.90
18163;DHT22;9206;50.994;4.538;2024-02-21T01:44:35;9.20;99.90
18163;DHT22;9206;50.994;4.538;2024-02-21T01:47:23;9.20;99.90
18163;DHT22;9206;50.994;4.538;2024-02-21T01:50:10;9.20;99.90
18163;DHT22;9206;50.994;4.538;2024-02-21T01:53:00;9.10;99.90
18163;DHT22;9206;50.994;4.538;2024-02-21T01:55:49;9.10;99.90
18163;DHT22;9206;50.994;4.538;2024-02-21T01:58:40;9.10;99.90
18163;DHT22;9206;50.994;4.538;2024-02-21T02:01:34;9.10;99.90
18163;DHT22;9206;50.994;4.538;2024-02-21T02:04:24;9.10;99.90
18163;DHT22;9206;50.994;4.538;2024-02-21T02:07:15;9.00;99.90
18163;DHT22;9206;50.994;4.538;2024-02-21T02:10:06;9.00;99.90
18163;DHT22;9206;50.994;4.538;2024-02-21T02:12:56;9.00;99.90
18163;DHT22;9206;50.994;4.538;2024-02-21T02:15:45;9.10;99.90
18163;DHT22;9206;50.994;4.538;2024-02-21T02:18:34;9.10;99.90
18163;DHT22;9206;50.994;4.538;2024-02-21T02:21:29;9.10;99.90
18163;DHT22;9206;50.994;4.538;2024-02-21T02:24:21;9.10;99.90
18163;DHT22;9206;50.994;4.538;2024-02-21T02:27:09;9.10;99.90
18163;DHT22;9206;50.994;4.538;2024-02-21T02:30:00;9.10;99.90
18163;DHT22;9206;50.994;4.538;2024-02-21T02:32:48;9.10;99.90
18163;DHT22;9206;50.994;4.538;2024-02-21T02:35:36;9.10;99.90
18163;DHT22;9206;50.994;4.538;2024-02-21T02:38:24;9.20;99.90
18163;DHT22;9206;50.994;4.538;2024-02-21T02:41:16;9.20;99.90
18163;DHT22;9206;50.994;4.538;2024-02-21T02:44:03;9.20;99.90
18163;DHT22;9206;50.994;4.538;2024-02-21T02:46:53;9.20;99.90
18163;DHT22;9206;50.994;4.538;2024-02-21T02:49:41;9.20;99.90
18163;DHT22;9206;50.994;4.538;2024-02-21T02:52:34;9.20;99.90
18163;DHT22;9206;50.994;4.538;2024-02-21T02:55:21;9.20;99.90
18163;DHT22;9206;50.994;4.538;2024-02-21T02:58:10;9.20;99.90
18163;DHT22;9206;50.994;4.538;2024-02-21T03:00:57;9.20;99.90
18163;DHT22;9206;50.994;4.538;2024-02-21T03:03:44;9.20;99.90
18163;DHT22;9206;50.994;4.538;2024-02-21T03:06:36;9.10;99.90
18163;DHT22;9206;50.994;4.538;2024-02-21T03:09:28;9.10;99.90
18163;DHT22;9206;50.994;4.538;2024-02-21T03:12:16;9.10;99.90
18163;DHT22;9206;50.994;4.538;2024-02-21T03:15:12;9.10;99.90
18163;DHT22;9206;50.994;4.538;2024-02-21T03:18:03;9.00;99.90
18163;DHT22;9206;50.994;4.538;2024-02-21T03:20:50;9.00;99.90
18163;DHT22;9206;50.994;4.538;2024-02-21T03:23:37;9.00;99.90
18163;DHT22;9206;50.994;4.538;2024-02-21T03:26:24;9.00;99.90
18163;DHT22;9206;50.994;4.538;2024-02-21T03:29:15;9.00;99.90
18163;DHT22;9206;50.994;4.538;2024-02-21T03:32:03;9.00;99.90
18163;DHT22;9206;50.994;4.538;2024-02-21T03:34:52;9.00;99.90
18163;DHT22;9206;50.994;4.538;2024-02-21T03:37:42;9.00;99.90
18163;DHT22;9206;50.994;4.538;2024-02-21T03:40:29;9.00;99.90
18163;DHT22;9206;50.994;4.538;2024-02-21T03:43:19;9.00;99.90
18163;DHT22;9206;50.994;4.538;2024-02-21T03:46:09;8.90;99.90
18163;DHT22;9206;50.994;4.538;2024-02-21T03:49:00;8.90;99.90
18163;DHT22;9206;50.994;4.538;2024-02-21T03:51:49;8.90;99.90
18163;DHT22;9206;50.994;4.538;2024-02-21T03:54:36;8.90;99.90
18163;DHT22;9206;50.994;4.538;2024-02-21T03:57:23;9.00;99.90
18163;DHT22;9206;50.994;4.538;2024-02-21T04:00:14;8.90;99.90
18163;DHT22;9206;50.994;4.538;2024-02-21T04:03:04;8.90;99.90
18163;DHT22;9206;50.994;4.538;2024-02-21T04:05:54;9.00;99.90
18163;DHT22;9206;50.994;4.538;2024-02-21T04:08:41;9.00;99.90
18163;DHT22;9206;50.994;4.538;2024-02-21T04:11:28;9.00;99.90
18163;DHT22;9206;50.994;4.538;2024-02-21T04:14:17;9.00;99.90
18163;DHT22;9206;50.994;4.538;2024-02-21T04:17:07;9.00;99.90
18163;DHT22;9206;50.994;4.538;2024-02-21T04:20:03;9.00;99.90
18163;DHT22;9206;50.994;4.538;2024-02-21T04:22:55;9.10;99.90
18163;DHT22;9206;50.994;4.538;2024-02-21T04:25:44;9.20;99.90
18163;DHT22;9206;50.994;4.538;2024-02-21T04:28:32;9.10;99.90
18163;DHT22;9206;50.994;4.538;2024-02-21T04:31:22;9.10;99.90
18163;DHT22;9206;50.994;4.538;2024-02-21T04:34:10;9.10;99.90
18163;DHT22;9206;50.994;4.538;2024-02-21T04:36:58;9.10;99.90
18163;DHT22;9206;50.994;4.538;2024-02-21T04:39:49;9.10;99.90
18163;DHT22;9206;50.994;4.538;2024-02-21T04:42:37;9.00;99.90
18163;DHT22;9206;50.994;4.538;2024-02-21T04:45:28;9.00;99.90
18163;DHT22;9206;50.994;4.538;2024-02-21T04:48:15;9.10;99.90
18163;DHT22;9206;50.994;4.538;2024-02-21T04:51:02;9.00;99.90
18163;DHT22;9206;50.994;4.538;2024-02-21T04:53:52;9.00;99.90
18163;DHT22;9206;50.994;4.538;2024-02-21T04:56:41;9.00;99.90
18163;DHT22;9206;50.994;4.538;2024-02-21T04:59:28;9.00;99.90
18163;DHT22;9206;50.994;4.538;2024-02-21T05:02:18;8.90;99.90
18163;DHT22;9206;50.994;4.538;2024-02-21T05:05:08;8.90;99.90
18163;DHT22;9206;50.994;4.538;2024-02-21T05:07:57;8.90;99.90
18163;DHT22;9206;50.994;4.538;2024-02-21T05:10:44;8.90;99.90
18163;DHT22;9206;50.994;4.538;2024-02-21T05:13:33;8.90;99.90
18163;DHT22;9206;50.994;4.538;2024-02-21T05:16:24;8.80;99.90
18163;DHT22;9206;50.994;4.538;2024-02-21T05:19:13;8.80;99.90
18163;DHT22;9206;50.994;4.538;2024-02-21T05:22:00;8.80;99.90
18163;DHT22;9206;50.994;4.538;2024-02-21T05:24:47;8.90;99.90
18163;DHT22;9206;50.994;4.538;2024-02-21T05:27:40;8.80;99.90
18163;DHT22;9206;50.994;4.538;2024-02-21T05:30:30;8.80;99.90
18163;DHT22;9206;50.994;4.538;2024-02-21T05:33:23;8.80;99.90
18163;DHT22;9206;50.994;4.538;2024-02-21T05:36:16;8.70;99.90
18163;DHT22;9206;50.994;4.538;2024-02-21T05:39:03;8.80;99.90
18163;DHT22;9206;50.994;4.538;2024-02-21T05:41:53;8.80;99.90
18163;DHT22;9206;50.994;4.538;2024-02-21T05:44:43;8.70;99.90
18163;DHT22;9206;50.994;4.538;2024-02-21T05:47:33;8.70;99.90
18163;DHT22;9206;50.994;4.538;2024-02-21T05:50:23;8.80;99.90
18163;DHT22;9206;50.994;4.538;2024-02-21T05:53:10;8.80;99.90
18163;DHT22;9206;50.994;4.538;2024-02-21T05:55:57;8.80;99.90
18163;DHT22;9206;50.994;4.538;2024-02-21T05:58:46;8.80;99.90
18163;DHT22;9206;50.994;4.538;2024-02-21T06:01:34;8.90;99.90
18163;DHT22;9206;50.994;4.538;2024-02-21T06:04:25;8.80;99.90
18163;DHT22;9206;50.994;4.538;2024-02-21T06:07:12;8.80;99.90
18163;DHT22;9206;50.994;4.538;2024-02-21T06:10:01;8.90;99.90
18163;DHT22;9206;50.994;4.538;2024-02-21T06:12:50;8.80;99.90
18163;DHT22;9206;50.994;4.538;2024-02-21T06:15:37;8.90;99.90
18163;DHT22;9206;50.994;4.538;2024-02-21T06:18:25;8.90;99.90
18163;DHT22;9206;50.994;4.538;2024-02-21T06:21:17;8.90;99.90
18163;DHT22;9206;50.994;4.538;2024-02-21T06:24:05;8.90;99.90
18163;DHT22;9206;50.994;4.538;2024-02-21T06:26:55;8.90;99.90
18163;DHT22;9206;50.994;4.538;2024-02-21T06:29:42;8.90;99.90
18163;DHT22;9206;50.994;4.538;2024-02-21T06:32:32;9.00;99.90
18163;DHT22;9206;50.994;4.538;2024-02-21T06:35:19;8.90;99.90
18163;DHT22;9206;50.994;4.538;2024-02-21T06:38:10;8.90;99.90
18163;DHT22;9206;50.994;4.538;2024-02-21T06:41:03;8.90;99.90
18163;DHT22;9206;50.994;4.538;2024-02-21T06:43:51;8.90;99.90
18163;DHT22;9206;50.994;4.538;2024-02-21T06:46:49;9.00;99.90
18163;DHT22;9206;50.994;4.538;2024-02-21T06:49:36;9.00;99.90
18163;DHT22;9206;50.994;4.538;2024-02-21T06:52:23;8.90;99.90
18163;DHT22;9206;50.994;4.538;2024-02-21T06:55:12;8.90;99.90
18163;DHT22;9206;50.994;4.538;2024-02-21T06:57:59;9.00;99.90
18163;DHT22;9206;50.994;4.538;2024-02-21T07:00:49;9.00;99.90
18163;DHT22;9206;50.994;4.538;2024-02-21T07:03:37;9.00;99.90
18163;DHT22;9206;50.994;4.538;2024-02-21T07:06:25;9.10;99.90
18163;DHT22;9206;50.994;4.538;2024-02-21T07:09:15;9.10;99.90
18163;DHT22;9206;50.994;4.538;2024-02-21T07:12:04;9.20;99.90
18163;DHT22;9206;50.994;4.538;2024-02-21T07:14:57;9.20;99.90
18163;DHT22;9206;50.994;4.538;2024-02-21T07:17:47;9.20;99.90
18163;DHT22;9206;50.994;4.538;2024-02-21T07:20:36;9.10;99.90
18163;DHT22;9206;50.994;4.538;2024-02-21T07:23:24;9.20;99.90
18163;DHT22;9206;50.994;4.538;2024-02-21T07:26:11;9.10;99.90
18163;DHT22;9206;50.994;4.538;2024-02-21T07:29:03;9.20;99.90
18163;DHT22;9206;50.994;4.538;2024-02-21T07:31:51;9.20;99.90
18163;DHT22;9206;50.994;4.538;2024-02-21T07:34:39;9.20;99.90
18163;DHT22;9206;50.994;4.538;2024-02-21T07:37:28;9.30;99.90
18163;DHT22;9206;50.994;4.538;2024-02-21T07:40:16;9.20;99.90
18163;DHT22;9206;50.994;4.538;2024-02-21T07:43:04;9.20;99.90
18163;DHT22;9206;50.994;4.538;2024-02-21T07:45:52;9.10;99.90
18163;DHT22;9206;50.994;4.538;2024-02-21T07:48:43;9.10;99.90
18163;DHT22;9206;50.994;4.538;2024-02-21T07:51:31;9.10;99.90
18163;DHT22;9206;50.994;4.538;2024-02-21T07:54:19;9.10;99.90
18163;DHT22;9206;50.994;4.538;2024-02-21T07:57:06;9.10;99.90
18163;DHT22;9206;50.994;4.538;2024-02-21T07:59:55;9.10;99.90
18163;DHT22;9206;50.994;4.538;2024-02-21T08:02:44;9.10;99.90
18163;DHT22;9206;50.994;4.538;2024-02-21T08:05:34;9.10;99.90
18163;DHT22;9206;50.994;4.538;2024-02-21T08:08:25;9.10;99.90
18163;DHT22;9206;50.994;4.538;2024-02-21T08:11:16;9.10;99.90
18163;DHT22;9206;50.994;4.538;2024-02-21T08:14:03;9.10;99.90
18163;DHT22;9206;50.994;4.538;2024-02-21T08:16:53;9.00;99.90
18163;DHT22;9206;50.994;4.538;2024-02-21T08:19:42;9.00;99.90
18163;DHT22;9206;50.994;4.538;2024-02-21T08:22:31;9.00;99.90
18163;DHT22;9206;50.994;4.538;2024-02-21T08:25:18;9.10;99.90
18163;DHT22;9206;50.994;4.538;2024-02-21T08:28:06;9.10;99.90
18163;DHT22;9206;50.994;4.538;2024-02-21T08:30:54;9.10;99.90
18163;DHT22;9206;50.994;4.538;2024-02-21T08:33:41;9.10;99.90
18163;DHT22;9206;50.994;4.538;2024-02-21T08:36:36;9.20;99.90
18163;DHT22;9206;50.994;4.538;2024-02-21T08:39:23;9.20;99.90
18163;DHT22;9206;50.994;4.538;2024-02-21T08:42:11;9.20;99.90
18163;DHT22;9206;50.994;4.538;2024-02-21T08:45:00;9.20;99.90
18163;DHT22;9206;50.994;4.538;2024-02-21T08:47:50;9.30;99.90
18163;DHT22;9206;50.994;4.538;2024-02-21T08:50:40;9.30;99.90
18163;DHT22;9206;50.994;4.538;2024-02-21T08:53:31;9.30;99.90
18163;DHT22;9206;50.994;4.538;2024-02-21T08:56:21;9.30;99.90
18163;DHT22;9206;50.994;4.538;2024-02-21T08:59:08;9.40;99.90
18163;DHT22;9206;50.994;4.538;2024-02-21T09:01:55;9.40;99.90
18163;DHT22;9206;50.994;4.538;2024-02-21T09:04:44;9.50;99.90
18163;DHT22;9206;50.994;4.538;2024-02-21T09:07:34;9.50;99.90
18163;DHT22;9206;50.994;4.538;2024-02-21T09:10:24;9.50;99.90
18163;DHT22;9206;50.994;4.538;2024-02-21T09:13:11;9.50;99.90
18163;DHT22;9206;50.994;4.538;2024-02-21T09:15:59;9.50;99.90
18163;DHT22;9206;50.994;4.538;2024-02-21T09:18:48;9.50;99.90
18163;DHT22;9206;50.994;4.538;2024-02-21T09:21:35;9.50;99.90
18163;DHT22;9206;50.994;4.538;2024-02-21T09:24:22;9.70;99.90
18163;DHT22;9206;50.994;4.538;2024-02-21T09:27:13;9.70;99.90
18163;DHT22;9206;50.994;4.538;2024-02-21T09:30:00;9.70;99.90
18163;DHT22;9206;50.994;4.538;2024-02-21T09:32:48;9.80;99.90
18163;DHT22;9206;50.994;4.538;2024-02-21T09:35:35;9.80;99.90
18163;DHT22;9206;50.994;4.538;2024-02-21T09:38:23;9.90;99.90
18163;DHT22;9206;50.994;4.538;2024-02-21T09:41:15;9.90;99.90
18163;DHT22;9206;50.994;4.538;2024-02-21T09:44:07;10.00;99.90
18163;DHT22;9206;50.994;4.538;2024-02-21T09:47:03;10.00;99.90
18163;DHT22;9206;50.994;4.538;2024-02-21T09:49:51;10.20;99.90
18163;DHT22;9206;50.994;4.538;2024-02-21T09:52:42;10.20;99.90
18163;DHT22;9206;50.994;4.538;2024-02-21T09:55:33;10.20;99.90
18163;DHT22;9206;50.994;4.538;2024-02-21T09:58:23;10.20;99.90
18163;DHT22;9206;50.994;4.538;2024-02-21T10:01:14;10.20;99.90
18163;DHT22;9206;50.994;4.538;2024-02-21T10:04:02;10.30;99.90
18163;DHT22;9206;50.994;4.538;2024-02-21T10:06:51;10.40;99.90
18163;DHT22;9206;50.994;4.538;2024-02-21T10:09:39;10.50;99.90
18163;DHT22;9206;50.994;4.538;2024-02-21T10:12:27;10.50;99.90
18163;DHT22;9206;50.994;4.538;2024-02-21T10:15:19;10.50;99.90
18163;DHT22;9206;50.994;4.538;2024-02-21T10:18:09;10.50;99.90
18163;DHT22;9206;50.994;4.538;2024-02-21T10:21:03;10.50;99.90
18163;DHT22;9206;50.994;4.538;2024-02-21T10:23:51;10.60;99.90
18163;DHT22;9206;50.994;4.538;2024-02-21T10:26:40;10.60;99.90
18163;DHT22;9206;50.994;4.538;2024-02-21T10:29:27;10.60;99.90
18163;DHT22;9206;50.994;4.538;2024-02-21T10:32:16;10.70;99.90
18163;DHT22;9206;50.994;4.538;2024-02-21T10:35:07;10.70;99.90
18163;DHT22;9206;50.994;4.538;2024-02-21T10:37:56;10.70;99.90
18163;DHT22;9206;50.994;4.538;2024-02-21T10:40:43;10.90;99.90
18163;DHT22;9206;50.994;4.538;2024-02-21T10:43:38;11.00;99.90
18163;DHT22;9206;50.994;4.538;2024-02-21T10:46:28;10.90;99.90
18163;DHT22;9206;50.994;4.538;2024-02-21T10:49:22;11.00;99.90
18163;DHT22;9206;50.994;4.538;2024-02-21T10:52:14;11.00;99.90
18163;DHT22;9206;50.994;4.538;2024-02-21T10:55:07;11.00;99.90
18163;DHT22;9206;50.994;4.538;2024-02-21T10:58:00;10.90;99.90
18163;DHT22;9206;50.994;4.538;2024-02-21T11:00:50;10.90;99.90
18163;DHT22;9206;50.994;4.538;2024-02-21T11:03:38;10.90;99.90
18163;DHT22;9206;50.994;4.538;2024-02-21T11:06:27;10.90;99.90
18163;DHT22;9206;50.994;4.538;2024-02-21T11:09:29;11.00;99.90
18163;DHT22;9206;50.994;4.538;2024-02-21T11:12:20;11.10;99.90
18163;DHT22;9206;50.994;4.538;2024-02-21T11:15:09;11.20;99.90
18163;DHT22;9206;50.994;4.538;2024-02-21T11:18:02;11.40;99.90
18163;DHT22;9206;50.994;4.538;2024-02-21T11:20:53;11.60;99.90
18163;DHT22;9206;50.994;4.538;2024-02-21T11:23:41;11.70;99.90
18163;DHT22;9206;50.994;4.538;2024-02-21T11:26:32;11.80;99.90
18163;DHT22;9206;50.994;4.538;2024-02-21T11:29:24;11.70;99.90
18163;DHT22;9206;50.994;4.538;2024-02-21T11:32:15;11.70;99.90
18163;DHT22;9206;50.994;4.538;2024-02-21T11:35:06;11.60;99.90
18163;DHT22;9206;50.994;4.538;2024-02-21T11:37:53;11.50;99.90
18163;DHT22;9206;50.994;4.538;2024-02-21T11:40:48;11.40;99.90
18163;DHT22;9206;50.994;4.538;2024-02-21T11:43:37;11.40;99.90
18163;DHT22;9206;50.994;4.538;2024-02-21T11:46:27;11.40;99.90
18163;DHT22;9206;50.994;4.538;2024-02-21T11:49:20;11.30;99.90
18163;DHT22;9206;50.994;4.538;2024-02-21T11:52:08;11.20;99.90
18163;DHT22;9206;50.994;4.538;2024-02-21T11:54:57;11.10;99.90
18163;DHT22;9206;50.994;4.538;2024-02-21T11:57:53;11.10;99.90
18163;DHT22;9206;50.994;4.538;2024-02-21T12:00:42;11.20;99.90
18163;DHT22;9206;50.994;4.538;2024-02-21T12:03:30;11.20;99.90
18163;DHT22;9206;50.994;4.538;2024-02-21T12:06:20;11.20;99.90
18163;DHT22;9206;50.994;4.538;2024-02-21T12:09:08;11.10;99.90
18163;DHT22;9206;50.994;4.538;2024-02-21T12:11:58;11.10;99.90
18163;DHT22;9206;50.994;4.538;2024-02-21T12:14:47;11.10;99.90
18163;DHT22;9206;50.994;4.538;2024-02-21T12:17:45;10.90;99.90
18163;DHT22;9206;50.994;4.538;2024-02-21T12:20:33;10.90;99.90
18163;DHT22;9206;50.994;4.538;2024-02-21T12:23:21;10.90;99.90
18163;DHT22;9206;50.994;4.538;2024-02-21T12:26:12;10.90;99.90
18163;DHT22;9206;50.994;4.538;2024-02-21T12:28:59;10.90;99.90
18163;DHT22;9206;50.994;4.538;2024-02-21T12:31:50;11.00;99.90
18163;DHT22;9206;50.994;4.538;2024-02-21T12:34:44;11.00;99.90
18163;DHT22;9206;50.994;4.538;2024-02-21T12:37:32;10.90;99.90
18163;DHT22;9206;50.994;4.538;2024-02-21T12:40:20;10.80;99.90
18163;DHT22;9206;50.994;4.538;2024-02-21T12:43:07;10.80;99.90
18163;DHT22;9206;50.994;4.538;2024-02-21T12:45:58;10.70;99.90
18163;DHT22;9206;50.994;4.538;2024-02-21T12:48:47;10.70;99.90
18163;DHT22;9206;50.994;4.538;2024-02-21T12:51:39;10.80;99.90
18163;DHT22;9206;50.994;4.538;2024-02-21T12:54:30;10.80;99.90
18163;DHT22;9206;50.994;4.538;2024-02-21T12:57:21;10.80;99.90
18163;DHT22;9206;50.994;4.538;2024-02-21T13:00:11;10.80;99.90
18163;DHT22;9206;50.994;4.538;2024-02-21T13:03:03;10.80;99.90
18163;DHT22;9206;50.994;4.538;2024-02-21T13:05:53;10.80;99.90
18163;DHT22;9206;50.994;4.538;2024-02-21T13:08:44;10.90;99.90
18163;DHT22;9206;50.994;4.538;2024-02-21T13:11:33;10.90;99.90
18163;DHT22;9206;50.994;4.538;2024-02-21T13:14:23;10.90;99.90
18163;DHT22;9206;50.994;4.538;2024-02-21T13:17:12;11.00;99.90
18163;DHT22;9206;50.994;4.538;2024-02-21T13:20:00;11.00;99.90
18163;DHT22;9206;50.994;4.538;2024-02-21T13:22:50;11.00;99.90
18163;DHT22;9206;50.994;4.538;2024-02-21T13:25:42;11.10;99.90
18163;DHT22;9206;50.994;4.538;2024-02-21T13:28:33;11.10;99.90
18163;DHT22;9206;50.994;4.538;2024-02-21T13:31:21;11.10;99.90
18163;DHT22;9206;50.994;4.538;2024-02-21T13:34:11;11.10;99.90
18163;DHT22;9206;50.994;4.538;2024-02-21T13:37:00;11.10;99.90
18163;DHT22;9206;50.994;4.538;2024-02-21T13:39:47;11.10;99.90
18163;DHT22;9206;50.994;4.538;2024-02-21T13:42:39;11.10;99.90
18163;DHT22;9206;50.994;4.538;2024-02-21T13:45:27;11.10;99.90
18163;DHT22;9206;50.994;4.538;2024-02-21T13:48:16;11.00;99.90
18163;DHT22;9206;50.994;4.538;2024-02-21T13:51:06;11.00;99.90
18163;DHT22;9206;50.994;4.538;2024-02-21T13:53:55;11.00;99.90
18163;DHT22;9206;50.994;4.538;2024-02-21T13:56:45;10.90;99.90
18163;DHT22;9206;50.994;4.538;2024-02-21T13:59:38;10.90;99.90
18163;DHT22;9206;50.994;4.538;2024-02-21T14:02:29;10.90;99.90
18163;DHT22;9206;50.994;4.538;2024-02-21T14:05:16;10.80;99.90
18163;DHT22;9206;50.994;4.538;2024-02-21T14:08:10;10.70;99.90
18163;DHT22;9206;50.994;4.538;2024-02-21T14:10:57;10.70;99.90
18163;DHT22;9206;50.994;4.538;2024-02-21T14:13:53;10.60;99.90
18163;DHT22;9206;50.994;4.538;2024-02-21T14:16:46;10.60;99.90
18163;DHT22;9206;50.994;4.538;2024-02-21T14:19:34;10.50;99.90
18163;DHT22;9206;50.994;4.538;2024-02-21T14:22:29;10.50;99.90
18163;DHT22;9206;50.994;4.538;2024-02-21T14:25:19;10.50;99.90
18163;DHT22;9206;50.994;4.538;2024-02-21T14:28:15;10.50;99.90
18163;DHT22;9206;50.994;4.538;2024-02-21T14:31:03;10.30;99.90
18163;DHT22;9206;50.994;4.538;2024-02-21T14:33:56;10.40;99.90
18163;DHT22;9206;50.994;4.538;2024-02-21T14:36:46;10.30;99.90
18163;DHT22;9206;50.994;4.538;2024-02-21T14:39:36;10.30;99.90
18163;DHT22;9206;50.994;4.538;2024-02-21T14:42:26;10.30;99.90
18163;DHT22;9206;50.994;4.538;2024-02-21T14:45:16;10.20;99.90
18163;DHT22;9206;50.994;4.538;2024-02-21T14:48:04;10.20;99.90
18163;DHT22;9206;50.994;4.538;2024-02-21T14:50:53;10.20;99.90
18163;DHT22;9206;50.994;4.538;2024-02-21T14:53:49;10.20;99.90
18163;DHT22;9206;50.994;4.538;2024-02-21T14:56:38;10.10;99.90
18163;DHT22;9206;50.994;4.538;2024-02-21T14:59:27;10.10;99.90
18163;DHT22;9206;50.994;4.538;2024-02-21T15:02:15;10.00;99.90
18163;DHT22;9206;50.994;4.538;2024-02-21T15:05:02;10.00;99.90
18163;DHT22;9206;50.994;4.538;2024-02-21T15:07:55;9.90;99.90
18163;DHT22;9206;50.994;4.538;2024-02-21T15:10:46;10.00;99.90
18163;DHT22;9206;50.994;4.538;2024-02-21T15:13:47;9.80;99.90
18163;DHT22;9206;50.994;4.538;2024-02-21T15:16:36;9.80;99.90
18163;DHT22;9206;50.994;4.538;2024-02-21T15:19:26;9.80;99.90
18163;DHT22;9206;50.994;4.538;2024-02-21T15:22:16;9.70;99.90
18163;DHT22;9206;50.994;4.538;2024-02-21T15:25:09;9.60;99.90
18163;DHT22;9206;50.994;4.538;2024-02-21T15:34:31;9.60;99.90
18163;DHT22;9206;50.994;4.538;2024-02-21T15:37:18;9.50;99.90
18163;DHT22;9206;50.994;4.538;2024-02-21T15:40:10;9.40;99.90
18163;DHT22;9206;50.994;4.538;2024-02-21T15:43:01;9.40;99.90
18163;DHT22;9206;50.994;4.538;2024-02-21T15:45:51;9.40;99.90
18163;DHT22;9206;50.994;4.538;2024-02-21T15:48:42;9.40;99.90
18163;DHT22;9206;50.994;4.538;2024-02-21T15:51:30;9.40;99.90
18163;DHT22;9206;50.994;4.538;2024-02-21T15:54:21;9.40;99.90
18163;DHT22;9206;50.994;4.538;2024-02-21T15:57:10;9.40;99.90
18163;DHT22;9206;50.994;4.538;2024-02-21T15:59:57;9.30;99.90
18163;DHT22;9206;50.994;4.538;2024-02-21T16:02:44;9.30;99.90
18163;DHT22;9206;50.994;4.538;2024-02-21T16:05:37;9.30;99.90
18163;DHT22;9206;50.994;4.538;2024-02-21T16:08:25;9.30;99.90
18163;DHT22;9206;50.994;4.538;2024-02-21T16:11:13;9.30;99.90
18163;DHT22;9206;50.994;4.538;2024-02-21T16:14:03;9.30;99.90
18163;DHT22;9206;50.994;4.538;2024-02-21T16:16:53;9.30;99.90
18163;DHT22;9206;50.994;4.538;2024-02-21T16:19:42;9.30;99.90
18163;DHT22;9206;50.994;4.538;2024-02-21T16:22:32;9.30;99.90
18163;DHT22;9206;50.994;4.538;2024-02-21T16:25:20;9.20;99.90
18163;DHT22;9206;50.994;4.538;2024-02-21T16:28:08;9.20;99.90
18163;DHT22;9206;50.994;4.538;2024-02-21T16:30:57;9.30;99.90
18163;DHT22;9206;50.994;4.538;2024-02-21T16:33:49;9.20;99.90
18163;DHT22;9206;50.994;4.538;2024-02-21T16:36:39;9.30;99.90
18163;DHT22;9206;50.994;4.538;2024-02-21T16:39:31;9.30;99.90
18163;DHT22;9206;50.994;4.538;2024-02-21T16:42:21;9.20;99.90
18163;DHT22;9206;50.994;4.538;2024-02-21T16:45:10;9.20;99.90
18163;DHT22;9206;50.994;4.538;2024-02-21T16:47:59;9.20;99.90
18163;DHT22;9206;50.994;4.538;2024-02-21T16:50:49;9.20;99.90
18163;DHT22;9206;50.994;4.538;2024-02-21T16:53:39;9.20;99.90
18163;DHT22;9206;50.994;4.538;2024-02-21T16:56:27;9.30;99.90
18163;DHT22;9206;50.994;4.538;2024-02-21T16:59:15;9.20;99.90
18163;DHT22;9206;50.994;4.538;2024-02-21T17:02:05;9.20;99.90
18163;DHT22;9206;50.994;4.538;2024-02-21T17:04:56;9.30;99.90
18163;DHT22;9206;50.994;4.538;2024-02-21T17:07:50;9.20;99.90
18163;DHT22;9206;50.994;4.538;2024-02-21T17:10:37;9.30;99.90
18163;DHT22;9206;50.994;4.538;2024-02-21T17:13:25;9.30;99.90
18163;DHT22;9206;50.994;4.538;2024-02-21T17:16:13;9.30;99.90
18163;DHT22;9206;50.994;4.538;2024-02-21T17:19:00;9.30;99.90
18163;DHT22;9206;50.994;4.538;2024-02-21T17:21:51;9.20;99.90
18163;DHT22;9206;50.994;4.538;2024-02-21T17:24:38;9.20;99.90
18163;DHT22;9206;50.994;4.538;2024-02-21T17:27:27;9.20;99.90
18163;DHT22;9206;50.994;4.538;2024-02-21T17:30:14;9.20;99.90
18163;DHT22;9206;50.994;4.538;2024-02-21T17:33:05;9.30;99.90
18163;DHT22;9206;50.994;4.538;2024-02-21T17:35:55;9.20;99.90
18163;DHT22;9206;50.994;4.538;2024-02-21T17:38:43;9.20;99.90
18163;DHT22;9206;50.994;4.538;2024-02-21T17:41:34;9.20;99.90
18163;DHT22;9206;50.994;4.538;2024-02-21T17:44:22;9.20;99.90
18163;DHT22;9206;50.994;4.538;2024-02-21T17:47:11;9.30;99.90
18163;DHT22;9206;50.994;4.538;2024-02-21T17:50:00;9.30;99.90
18163;DHT22;9206;50.994;4.538;2024-02-21T17:52:54;9.30;99.90
18163;DHT22;9206;50.994;4.538;2024-02-21T17:55:43;9.30;99.90
18163;DHT22;9206;50.994;4.538;2024-02-21T17:58:32;9.30;99.90
18163;DHT22;9206;50.994;4.538;2024-02-21T18:01:22;9.30;99.90
18163;DHT22;9206;50.994;4.538;2024-02-21T18:04:25;9.30;99.90
18163;DHT22;9206;50.994;4.538;2024-02-21T18:07:14;9.30;99.90
18163;DHT22;9206;50.994;4.538;2024-02-21T18:10:01;9.40;99.90
18163;DHT22;9206;50.994;4.538;2024-02-21T18:12:52;9.30;99.90
18163;DHT22;9206;50.994;4.538;2024-02-21T18:15:43;9.40;99.90
18163;DHT22;9206;50.994;4.538;2024-02-21T18:18:30;9.40;99.90
18163;DHT22;9206;50.994;4.538;2024-02-21T18:21:19;9.30;99.90
18163;DHT22;9206;50.994;4.538;2024-02-21T18:24:09;9.30;99.90
18163;DHT22;9206;50.994;4.538;2024-02-21T18:27:03;9.40;99.90